createdAt,value
2018-06-25T00:00:26.170Z,14.90
2018-06-25T00:05:22.328Z,14.90
2018-06-25T00:07:50.592Z,15.00
2018-06-25T00:12:46.818Z,15.00
2018-06-25T00:15:15.160Z,15.00
2018-06-25T00:17:43.385Z,15.00
2018-06-25T00:20:11.582Z,15.00
2018-06-25T00:22:39.788Z,15.00
2018-06-25T00:25:08.449Z,15.00
2018-06-25T00:27:36.781Z,15.10
2018-06-25T00:30:04.988Z,15.00
2018-06-25T00:32:33.204Z,15.00
2018-06-25T00:35:02.483Z,15.00
2018-06-25T00:37:30.684Z,15.00
2018-06-25T00:39:58.855Z,15.00
2018-06-25T00:42:27.034Z,15.00
2018-06-25T00:44:55.351Z,14.90
2018-06-25T00:47:23.569Z,15.00
2018-06-25T00:49:51.726Z,15.00
2018-06-25T00:52:19.896Z,15.00
2018-06-25T00:54:48.279Z,15.00
2018-06-25T00:57:16.450Z,15.00
2018-06-25T00:59:51.580Z,15.00
2018-06-25T01:02:20.160Z,15.00
2018-06-25T01:04:48.597Z,15.00
2018-06-25T01:07:17.380Z,15.00
2018-06-25T01:09:45.631Z,15.00
2018-06-25T01:12:14.386Z,15.00
2018-06-25T01:14:43.064Z,15.10
2018-06-25T01:17:11.454Z,15.00
2018-06-25T01:19:39.626Z,15.00
2018-06-25T01:22:08.897Z,15.00
2018-06-25T01:24:37.548Z,15.00
2018-06-25T01:27:07.787Z,15.00
2018-06-25T01:29:36.910Z,15.00
2018-06-25T01:32:05.263Z,15.00
2018-06-25T01:34:33.513Z,15.00
2018-06-25T01:37:01.996Z,15.00
2018-06-25T01:39:30.306Z,15.00
2018-06-25T01:41:58.581Z,15.00
2018-06-25T01:44:26.882Z,15.00
2018-06-25T01:46:55.087Z,15.00
2018-06-25T01:49:23.358Z,15.00
2018-06-25T01:51:51.599Z,15.00
2018-06-25T01:54:19.799Z,15.00
2018-06-25T01:56:48.059Z,15.00
2018-06-25T01:59:16.271Z,15.00
2018-06-25T02:01:44.432Z,15.00
2018-06-25T02:04:12.626Z,15.00
2018-06-25T02:06:40.952Z,15.00
2018-06-25T02:09:10.826Z,15.00
2018-06-25T02:11:39.302Z,15.00
2018-06-25T02:16:35.684Z,15.00
2018-06-25T02:19:03.874Z,15.00
2018-06-25T02:21:32.108Z,15.00
2018-06-25T02:24:00.476Z,15.10
2018-06-25T02:26:28.846Z,15.10
2018-06-25T02:28:57.083Z,15.10
2018-06-25T02:31:25.290Z,15.10
2018-06-25T02:33:53.922Z,15.10
2018-06-25T02:36:22.274Z,15.10
2018-06-25T02:38:50.425Z,15.10
2018-06-25T02:41:18.606Z,15.00
2018-06-25T02:43:46.797Z,15.00
2018-06-25T02:46:15.066Z,15.00
2018-06-25T02:48:43.280Z,15.00
2018-06-25T02:51:11.433Z,15.00
2018-06-25T02:53:39.686Z,15.10
2018-06-25T02:56:07.956Z,15.00
2018-06-25T02:58:36.978Z,15.00
2018-06-25T03:01:05.259Z,15.00
2018-06-25T03:03:33.416Z,15.00
2018-06-25T03:06:01.814Z,15.00
2018-06-25T03:08:30.042Z,15.00
2018-06-25T03:10:58.354Z,15.00
2018-06-25T03:13:26.528Z,15.00
2018-06-25T03:15:54.694Z,15.10
2018-06-25T03:18:22.874Z,15.00
2018-06-25T03:20:51.256Z,15.10
2018-06-25T03:23:19.452Z,15.00
2018-06-25T03:25:47.857Z,15.10
2018-06-25T03:28:16.121Z,15.00
2018-06-25T03:30:44.350Z,15.00
2018-06-25T03:33:12.529Z,15.00
2018-06-25T03:35:41.026Z,15.00
2018-06-25T03:38:09.357Z,15.00
2018-06-25T03:40:37.816Z,15.00
2018-06-25T03:43:06.125Z,15.00
2018-06-25T03:45:34.447Z,15.00
2018-06-25T03:48:02.687Z,15.00
2018-06-25T03:50:30.957Z,15.10
2018-06-25T03:52:59.159Z,15.10
2018-06-25T03:55:27.570Z,15.10
2018-06-25T03:57:55.886Z,15.00
2018-06-25T04:00:24.105Z,15.10
2018-06-25T04:02:52.668Z,15.10
2018-06-25T04:05:21.060Z,15.10
2018-06-25T04:07:49.327Z,15.10
2018-06-25T04:10:17.527Z,15.10
2018-06-25T04:12:45.788Z,15.10
2018-06-25T04:15:14.141Z,15.20
2018-06-25T04:17:42.424Z,15.20
2018-06-25T04:20:10.681Z,15.20
2018-06-25T04:22:38.848Z,15.20
2018-06-25T04:25:07.645Z,15.20
2018-06-25T04:27:35.918Z,15.20
2018-06-25T04:30:04.415Z,15.20
2018-06-25T04:32:32.619Z,15.20
2018-06-25T04:35:00.983Z,15.20
2018-06-25T04:37:29.202Z,15.20
2018-06-25T04:39:58.322Z,15.20
2018-06-25T04:42:26.545Z,15.20
2018-06-25T04:44:54.918Z,15.20
2018-06-25T04:47:23.172Z,15.30
2018-06-25T04:49:51.345Z,15.30
2018-06-25T04:52:19.547Z,15.30
2018-06-25T04:54:47.774Z,15.30
2018-06-25T04:57:15.987Z,15.30
2018-06-25T04:59:44.249Z,15.30
2018-06-25T05:02:12.488Z,15.30
2018-06-25T05:04:40.896Z,15.30
2018-06-25T05:07:09.079Z,15.30
2018-06-25T05:09:37.372Z,15.30
2018-06-25T05:12:05.672Z,15.30
2018-06-25T05:14:34.085Z,15.20
2018-06-25T05:17:02.353Z,15.20
2018-06-25T05:19:30.652Z,15.20
2018-06-25T05:21:58.872Z,15.20
2018-06-25T05:24:27.038Z,15.30
2018-06-25T05:26:55.277Z,15.30
2018-06-25T05:29:23.517Z,15.30
2018-06-25T05:31:51.711Z,15.30
2018-06-25T05:34:19.939Z,15.30
2018-06-25T05:36:48.309Z,15.30
2018-06-25T05:39:16.498Z,15.30
2018-06-25T05:41:44.712Z,15.30
2018-06-25T05:47:11.126Z,15.30
2018-06-25T05:49:39.318Z,15.30
2018-06-25T05:52:07.529Z,15.40
2018-06-25T05:54:35.946Z,15.40
2018-06-25T05:57:04.224Z,15.40
2018-06-25T05:59:32.471Z,15.30
2018-06-25T06:02:00.720Z,15.30
2018-06-25T06:04:28.988Z,15.30
2018-06-25T06:06:57.269Z,15.30
2018-06-25T06:09:25.646Z,15.20
2018-06-25T06:11:53.900Z,15.20
2018-06-25T06:14:22.093Z,15.20
2018-06-25T06:16:50.437Z,15.30
2018-06-25T06:19:18.604Z,15.20
2018-06-25T06:21:46.804Z,15.20
2018-06-25T06:24:14.970Z,15.20
2018-06-25T06:26:43.328Z,15.30
2018-06-25T06:29:11.523Z,15.30
2018-06-25T06:31:39.716Z,15.40
2018-06-25T06:34:07.906Z,15.30
2018-06-25T06:36:37.791Z,15.30
2018-06-25T06:39:09.102Z,15.30
2018-06-25T06:41:37.285Z,15.30
2018-06-25T06:44:05.485Z,15.30
2018-06-25T06:46:34.083Z,15.30
2018-06-25T06:49:02.535Z,15.40
2018-06-25T06:51:31.048Z,15.40
2018-06-25T06:53:59.310Z,15.40
2018-06-25T06:56:27.731Z,15.40
2018-06-25T06:58:55.917Z,15.50
2018-06-25T07:01:24.190Z,15.50
2018-06-25T07:03:52.349Z,15.50
2018-06-25T07:06:20.541Z,15.60
2018-06-25T07:08:48.935Z,15.50
2018-06-25T07:11:17.145Z,15.50
2018-06-25T07:13:45.320Z,15.50
2018-06-25T07:16:13.683Z,15.50
2018-06-25T07:18:41.914Z,15.50
2018-06-25T07:21:10.173Z,15.50
2018-06-25T07:23:38.393Z,15.50
2018-06-25T07:26:06.817Z,15.60
2018-06-25T07:28:35.028Z,15.60
2018-06-25T07:31:03.278Z,15.50
2018-06-25T07:33:31.542Z,15.40
2018-06-25T07:35:59.821Z,15.40
2018-06-25T07:38:28.040Z,15.30
2018-06-25T07:40:56.208Z,15.30
2018-06-25T07:43:24.388Z,15.30
2018-06-25T07:45:53.015Z,15.40
2018-06-25T07:48:21.236Z,15.50
2018-06-25T07:50:49.464Z,15.50
2018-06-25T07:53:17.728Z,15.60
2018-06-25T07:55:46.377Z,15.60
2018-06-25T07:58:14.606Z,15.60
2018-06-25T08:00:42.810Z,15.60
2018-06-25T08:03:11.100Z,15.70
2018-06-25T08:05:39.475Z,15.60
2018-06-25T08:08:07.714Z,15.60
2018-06-25T08:10:36.168Z,15.50
2018-06-25T08:13:04.499Z,15.50
2018-06-25T08:15:32.899Z,15.40
2018-06-25T08:18:01.116Z,15.50
2018-06-25T09:21:02.546Z,16.20
2018-06-25T09:23:30.780Z,16.30
2018-06-25T09:25:59.165Z,16.30
2018-06-25T09:28:27.400Z,16.30
2018-06-25T09:30:55.613Z,16.50
2018-06-25T09:33:23.801Z,16.40
2018-06-25T09:35:52.199Z,16.40
2018-06-25T09:40:48.407Z,16.40
2018-06-25T09:43:16.676Z,16.50
2018-06-25T09:45:44.948Z,16.40
2018-06-25T09:48:13.194Z,16.40
2018-06-25T09:50:41.427Z,16.40
2018-06-25T09:53:09.696Z,16.50
2018-06-25T09:55:39.048Z,16.50
2018-06-25T09:58:07.244Z,16.60
2018-06-25T10:00:40.983Z,16.70
2018-06-25T10:03:09.193Z,16.80
2018-06-25T10:05:37.661Z,16.90
2018-06-25T10:08:05.929Z,16.90
2018-06-25T10:10:34.285Z,16.90
2018-06-25T10:13:02.447Z,16.90
2018-06-25T10:15:30.847Z,16.90
2018-06-25T10:17:59.118Z,17.00
2018-06-25T10:20:27.417Z,17.00
2018-06-25T10:22:55.683Z,17.00
2018-06-25T10:25:25.014Z,17.10
2018-06-25T10:27:53.233Z,17.30
2018-06-25T10:30:21.449Z,17.40
2018-06-25T10:32:49.714Z,17.50
2018-06-25T10:35:18.093Z,17.40
2018-06-25T10:37:46.365Z,17.30
2018-06-25T10:40:14.601Z,17.20
2018-06-25T10:42:42.863Z,17.30
2018-06-25T10:45:11.152Z,17.30
2018-06-25T10:47:39.323Z,17.30
2018-06-25T10:50:08.123Z,17.30
2018-06-25T10:52:36.442Z,17.40
2018-06-25T10:55:04.866Z,17.50
2018-06-25T10:57:33.184Z,17.60
2018-06-25T11:00:01.830Z,17.60
2018-06-25T11:02:29.740Z,17.60
2018-06-25T11:04:58.246Z,17.70
2018-06-25T11:07:26.604Z,17.70
2018-06-25T11:09:54.715Z,17.80
2018-06-25T11:12:22.953Z,17.60
2018-06-25T11:14:51.306Z,17.50
2018-06-25T11:17:19.543Z,17.60
2018-06-25T11:19:47.799Z,17.50
2018-06-25T11:22:16.060Z,17.50
2018-06-25T11:24:44.432Z,17.70
2018-06-25T11:27:12.837Z,17.90
2018-06-25T11:29:40.999Z,17.50
2018-06-25T11:32:09.279Z,17.40
2018-06-25T11:34:37.654Z,17.50
2018-06-25T11:37:05.859Z,17.50
2018-06-25T11:39:34.278Z,17.50
2018-06-25T11:42:02.510Z,17.40
2018-06-25T11:44:30.741Z,17.40
2018-06-25T11:46:58.962Z,17.60
2018-06-25T11:49:27.225Z,17.50
2018-06-25T11:51:55.478Z,17.50
2018-06-25T11:54:23.732Z,17.50
2018-06-25T11:56:51.963Z,17.50
2018-06-25T11:59:20.234Z,17.50
2018-06-25T12:01:48.636Z,17.60
2018-06-25T12:04:16.697Z,17.60
2018-06-25T12:09:12.976Z,17.80
2018-06-25T12:11:41.676Z,17.80
2018-06-25T12:14:09.927Z,17.90
2018-06-25T12:16:38.396Z,18.00
2018-06-25T12:19:06.803Z,17.90
2018-06-25T12:21:35.025Z,17.90
2018-06-25T12:24:03.306Z,17.80
2018-06-25T12:26:31.694Z,17.70
2018-06-25T12:28:59.892Z,17.60
2018-06-25T12:31:28.138Z,17.70
2018-06-25T12:36:24.508Z,17.60
2018-06-25T12:38:52.728Z,17.80
2018-06-25T12:41:20.904Z,18.00
2018-06-25T12:43:49.152Z,18.10
2018-06-25T12:46:17.445Z,18.10
2018-06-25T12:48:45.675Z,18.20
2018-06-25T12:51:13.851Z,18.20
2018-06-25T12:53:42.044Z,18.10
2018-06-25T12:56:10.366Z,18.20
2018-06-25T12:58:38.543Z,18.00
2018-06-25T13:01:06.749Z,18.00
2018-06-25T13:03:34.930Z,18.10
2018-06-25T13:06:03.427Z,18.20
2018-06-25T13:08:31.632Z,18.20
2018-06-25T13:10:59.859Z,18.00
2018-06-25T13:13:28.170Z,18.00
2018-06-25T13:15:56.614Z,18.00
2018-06-25T13:18:24.867Z,18.00
2018-06-25T13:20:53.092Z,18.10
2018-06-25T13:23:21.441Z,18.10
2018-06-25T13:25:49.849Z,17.90
2018-06-25T13:28:18.036Z,17.70
2018-06-25T13:30:46.237Z,17.60
2018-06-25T13:33:14.461Z,17.70
2018-06-25T13:35:42.823Z,17.80
2018-06-25T13:38:11.059Z,17.90
2018-06-25T13:40:39.287Z,17.70
2018-06-25T13:43:07.623Z,17.80
2018-06-25T13:45:36.890Z,17.90
2018-06-25T13:48:05.213Z,18.00
2018-06-25T13:50:33.594Z,18.00
2018-06-25T13:53:02.194Z,18.10
2018-06-25T13:55:30.641Z,18.10
2018-06-25T13:57:58.856Z,18.10
2018-06-25T14:00:27.131Z,18.10
2018-06-25T14:02:55.746Z,18.20
2018-06-25T14:05:24.149Z,18.20
2018-06-25T14:07:52.894Z,18.10
2018-06-25T14:10:21.105Z,18.10
2018-06-25T14:12:49.320Z,18.30
2018-06-25T14:15:17.638Z,18.40
2018-06-25T14:17:45.835Z,18.30
2018-06-25T14:20:14.455Z,18.30
2018-06-25T14:22:42.716Z,18.20
2018-06-25T14:25:10.948Z,18.10
2018-06-25T14:27:44.582Z,18.20
2018-06-25T14:30:18.210Z,18.30
2018-06-25T14:32:51.895Z,18.20
2018-06-25T14:35:20.259Z,18.10
2018-06-25T14:37:48.484Z,18.10
2018-06-25T14:40:16.698Z,17.90
2018-06-25T14:42:44.847Z,17.90
2018-06-25T14:45:13.155Z,18.00
2018-06-25T14:47:41.396Z,18.10
2018-06-25T14:50:09.701Z,18.40
2018-06-25T14:52:38.003Z,18.90
2018-06-25T14:55:06.309Z,18.70
2018-06-25T14:57:34.515Z,18.50
2018-06-25T15:00:02.729Z,18.40
2018-06-25T15:02:31.081Z,18.10
2018-06-25T15:04:59.770Z,18.20
2018-06-25T15:07:28.226Z,18.10
2018-06-25T15:09:56.584Z,18.10
2018-06-25T15:12:24.885Z,17.80
2018-06-25T15:14:53.356Z,17.90
2018-06-25T15:17:21.647Z,17.90
2018-06-25T15:19:49.921Z,18.00
2018-06-25T15:22:18.189Z,18.00
2018-06-25T15:24:46.547Z,18.00
2018-06-25T15:27:14.801Z,18.00
2018-06-25T15:29:43.031Z,17.90
2018-06-25T15:32:11.347Z,17.90
2018-06-25T15:34:40.797Z,17.90
2018-06-25T15:37:09.112Z,17.80
2018-06-25T15:39:37.605Z,17.80
2018-06-25T15:42:06.374Z,17.60
2018-06-25T15:44:34.819Z,17.60
2018-06-25T15:47:03.018Z,17.60
2018-06-25T15:49:31.406Z,17.60
2018-06-25T15:51:59.595Z,17.50
2018-06-25T15:54:27.942Z,17.60
2018-06-25T15:56:56.178Z,17.60
2018-06-25T15:59:24.552Z,17.70
2018-06-25T16:01:52.855Z,17.70
2018-06-25T16:04:21.049Z,17.70
2018-06-25T16:06:49.661Z,17.60
2018-06-25T16:11:45.948Z,17.70
2018-06-25T16:14:14.243Z,17.70
2018-06-25T16:16:42.560Z,17.60
2018-06-25T16:19:10.736Z,17.50
2018-06-25T16:21:39.047Z,17.60
2018-06-25T16:24:07.408Z,17.50
2018-06-25T16:26:35.706Z,17.40
2018-06-25T16:29:03.919Z,17.40
2018-06-25T16:31:32.259Z,17.40
2018-06-25T16:34:00.568Z,17.40
2018-06-25T16:36:28.750Z,17.40
2018-06-25T16:38:57.036Z,17.30
2018-06-25T16:41:25.291Z,17.20
2018-06-25T16:43:53.567Z,17.20
2018-06-25T16:46:21.880Z,17.20
2018-06-25T16:48:50.243Z,17.20
2018-06-25T16:51:18.472Z,17.10
2018-06-25T16:53:46.787Z,17.20
2018-06-25T16:59:14.653Z,17.20
2018-06-25T17:01:42.826Z,17.20
2018-06-25T17:04:11.029Z,17.20
2018-06-25T17:06:40.446Z,17.10
2018-06-25T17:09:11.041Z,17.10
2018-06-25T17:11:39.815Z,17.00
2018-06-25T17:14:07.988Z,17.00
2018-06-25T17:16:36.530Z,16.90
2018-06-25T17:19:05.159Z,16.90
2018-06-25T17:21:33.423Z,16.90
2018-06-25T17:24:01.701Z,16.90
2018-06-25T17:26:30.377Z,16.90
2018-06-25T17:28:58.664Z,16.80
2018-06-25T17:31:26.858Z,16.90
2018-06-25T17:33:55.082Z,16.90
2018-06-25T17:36:23.458Z,16.80
2018-06-25T17:38:58.068Z,16.80
2018-06-25T17:41:26.390Z,16.80
2018-06-25T17:43:54.805Z,16.70
2018-06-25T17:48:51.178Z,16.80
2018-06-25T17:51:19.391Z,16.70
2018-06-25T17:53:47.599Z,16.70
2018-06-25T17:56:15.925Z,16.70
2018-06-25T17:58:44.137Z,16.70
2018-06-25T18:01:12.430Z,16.70
2018-06-25T18:03:40.771Z,16.60
2018-06-25T18:06:09.126Z,16.60
2018-06-25T18:08:37.972Z,16.60
2018-06-25T18:11:06.206Z,16.60
2018-06-25T18:13:34.430Z,16.50
2018-06-25T18:16:02.800Z,16.50
2018-06-25T18:18:31.037Z,16.50
2018-06-25T18:20:59.246Z,16.40
2018-06-25T18:23:27.687Z,16.50
2018-06-25T18:25:56.257Z,16.50
2018-06-25T18:28:24.512Z,16.40
2018-06-25T18:30:52.721Z,16.40
2018-06-25T18:33:20.942Z,16.40
2018-06-25T18:35:49.201Z,16.40
2018-06-25T18:38:17.427Z,16.30
2018-06-25T18:40:45.813Z,16.30
2018-06-25T18:43:14.014Z,16.20
2018-06-25T18:45:42.991Z,16.30
2018-06-25T18:48:11.202Z,16.20
2018-06-25T18:50:39.413Z,16.20
2018-06-25T18:53:07.638Z,16.10
2018-06-25T18:55:35.997Z,16.10
2018-06-25T18:58:04.218Z,16.10
2018-06-25T19:03:00.630Z,15.90
2018-06-25T19:05:29.022Z,16.00
2018-06-25T19:07:57.271Z,16.00
2018-06-25T19:10:25.506Z,15.90
2018-06-25T19:12:53.738Z,15.90
2018-06-25T19:15:22.838Z,15.80
2018-06-25T19:17:51.094Z,15.80
2018-06-25T19:20:19.242Z,15.80
2018-06-25T19:22:47.476Z,15.80
2018-06-25T19:25:15.655Z,15.70
2018-06-25T19:30:11.792Z,15.60
2018-06-25T19:32:39.984Z,15.60
2018-06-25T19:35:08.508Z,15.60
2018-06-25T19:37:36.753Z,15.50
2018-06-25T19:40:05.439Z,15.50
2018-06-25T19:42:34.327Z,15.40
2018-06-25T19:45:02.740Z,15.40
2018-06-25T19:47:30.929Z,15.30
2018-06-25T19:49:59.162Z,15.40
2018-06-25T19:52:27.432Z,15.40
2018-06-25T19:54:55.859Z,15.30
2018-06-25T19:57:24.071Z,15.20
2018-06-25T19:59:52.310Z,15.20
2018-06-25T20:02:20.525Z,15.10
2018-06-25T20:04:48.935Z,15.10
2018-06-25T20:07:17.186Z,15.10
2018-06-25T20:09:47.476Z,15.00
2018-06-25T20:12:17.720Z,15.10
2018-06-25T20:14:46.157Z,15.10
2018-06-25T20:19:42.441Z,15.10
2018-06-25T20:22:10.582Z,15.10
2018-06-25T20:24:38.829Z,15.10
2018-06-25T20:27:07.108Z,15.20
2018-06-25T20:29:35.290Z,15.10
2018-06-25T20:32:03.577Z,15.10
2018-06-25T20:34:32.976Z,15.10
2018-06-25T20:37:02.135Z,15.10
2018-06-25T20:39:30.410Z,15.10
2018-06-25T20:41:58.641Z,15.10
2018-06-25T20:44:26.881Z,15.10
2018-06-25T20:46:55.127Z,15.10
2018-06-25T20:49:23.359Z,15.10
2018-06-25T20:51:51.655Z,15.10
2018-06-25T20:54:19.882Z,15.10
2018-06-25T20:56:48.199Z,15.00
2018-06-25T20:59:16.410Z,15.10
2018-06-25T21:01:44.603Z,15.10
2018-06-25T21:04:12.817Z,15.10
2018-06-25T21:06:41.153Z,15.10
2018-06-25T21:09:11.147Z,15.00
2018-06-25T21:11:39.935Z,15.00
2018-06-25T21:14:08.168Z,15.00
2018-06-25T21:16:36.497Z,15.00
2018-06-25T21:19:04.819Z,15.00
2018-06-25T21:21:33.974Z,14.90
2018-06-25T21:24:02.224Z,14.90
2018-06-25T21:26:30.572Z,14.90
2018-06-25T21:29:05.209Z,14.80
2018-06-25T21:31:33.395Z,14.80
2018-06-25T21:34:01.578Z,14.70
2018-06-25T21:36:29.879Z,14.70
2018-06-25T21:38:58.102Z,14.70
2018-06-25T21:41:26.312Z,14.80
2018-06-25T21:43:54.529Z,14.80
2018-06-25T21:46:22.987Z,14.80
2018-06-25T21:48:51.266Z,14.80
2018-06-25T21:51:19.521Z,14.80
2018-06-25T21:53:47.713Z,14.70
2018-06-25T21:56:16.932Z,14.70
2018-06-25T21:58:45.214Z,14.60
2018-06-25T22:01:13.525Z,14.50
2018-06-25T22:03:41.714Z,14.50
2018-06-25T22:06:09.873Z,14.50
2018-06-25T22:08:38.074Z,14.50
2018-06-25T22:11:06.344Z,14.40
2018-06-25T22:13:34.535Z,14.40
2018-06-25T22:16:02.929Z,14.40
2018-06-25T22:18:31.183Z,14.40
2018-06-25T22:20:59.467Z,14.40
2018-06-25T22:23:27.640Z,14.30
2018-06-25T22:25:55.977Z,14.30
2018-06-25T22:28:24.288Z,14.30
2018-06-25T22:30:52.494Z,14.30
2018-06-25T22:33:20.718Z,14.20
2018-06-25T22:35:49.127Z,14.20
2018-06-25T22:38:17.360Z,14.20
2018-06-25T22:40:45.584Z,14.20
2018-06-25T22:43:13.843Z,14.20
2018-06-25T22:45:42.139Z,14.10
2018-06-25T22:48:10.318Z,14.10
2018-06-25T22:50:38.503Z,14.10
2018-06-25T22:53:06.669Z,14.10
2018-06-25T22:55:36.421Z,14.00
2018-06-25T22:58:04.615Z,14.00
2018-06-25T23:00:33.453Z,14.00
2018-06-25T23:03:01.625Z,14.00
2018-06-25T23:05:29.831Z,14.00
2018-06-25T23:07:58.079Z,13.90
2018-06-25T23:10:26.337Z,13.90
2018-06-25T23:12:54.977Z,14.00
2018-06-25T23:15:23.426Z,14.00
2018-06-25T23:17:51.783Z,14.00
2018-06-25T23:20:19.964Z,14.00
2018-06-25T23:22:52.502Z,14.00
2018-06-25T23:25:20.741Z,14.00
2018-06-25T23:27:49.100Z,13.90
2018-06-25T23:30:17.402Z,13.90
2018-06-25T23:32:45.727Z,13.80
2018-06-25T23:35:13.990Z,13.80
2018-06-25T23:37:42.236Z,13.80
2018-06-25T23:40:10.527Z,13.80
2018-06-25T23:42:38.796Z,13.80
2018-06-25T23:45:08.251Z,13.80
2018-06-25T23:47:36.420Z,13.80
2018-06-25T23:50:04.822Z,13.80
2018-06-25T23:52:33.002Z,13.80
2018-06-25T23:55:01.260Z,13.80
2018-06-25T23:57:29.479Z,13.80
2018-06-25T23:59:57.767Z,13.80
